Lonsdale, Minnesota
Current Conditions -  °F | °C
As of 5:54 PM on Wednesday 22 Oct 2014 (Local Time) from KFBL Reporting Station
Scattered Clouds Scattered Clouds  
Wind Chill: 57°   Ceiling: Unl
Heat Index: 57°   Visibility: 10mi
Dew Point: 43°   Wind: 18mph
Humidity: 59%   Direction: 150°SSE
Pressure: 30.06"   Gusts: 25mph
Location:  44.48°N, 93.43°W
Report Text: KFBL 222254Z AUTO 15016G22KT 10SM SCT080 14/06 A3006 RMK AO2
Loading
Personal Weather Stations






























Interactive Weather Map
Tropical Storm Tracking
New forecast layout! Learn more

10-Day Weather Forecast

Advertisements
Track Severe Weather on mobile